Time;durP1;ratioP1;P1;durP2;ratioP2;P2;SDS_P1;SDS_P2;PMS_P1;PMS_P2;Temp;Humidity;BMP_temperature;BMP_pressure;BME280_temperature;BME280_humidity;BME280_pressure;Samples;Min_cycle;Max_cycle;Signal;HPM_P1;HPM_P2
2023/01/19 00:00:21;;;;;;;4.20;1.20;;;;;;;;;;5061061;28;20429;-70
2023/01/19 00:02:47;;;;;;;4.57;1.70;;;;;;;;;;5058868;28;20029;-70
2023/01/19 00:05:13;;;;;;;4.38;1.23;;;;;;;;;;5067901;28;20032;-70
2023/01/19 00:07:40;;;;;;;7.18;2.20;;;;;;;;;;5067992;28;20390;-70
2023/01/19 00:10:06;;;;;;;7.70;1.73;;;;;;;;;;5058818;28;20088;-70
2023/01/19 00:12:33;;;;;;;8.30;1.75;;;;;;;;;;5061076;28;20017;-70
2023/01/19 00:14:59;;;;;;;13.23;3.00;;;;;;;;;;5066022;28;20089;-70
2023/01/19 00:17:25;;;;;;;11.80;2.30;;;;;;;;;;5053424;28;20421;-70
2023/01/19 00:19:51;;;;;;;26.35;5.70;;;;;;;;;;5070812;28;20500;-70
2023/01/19 00:22:17;;;;;;;13.07;2.40;;;;;;;;;;5066665;28;20032;-70
2023/01/19 00:24:44;;;;;;;18.88;2.67;;;;;;;;;;5059588;28;20113;-70
2023/01/19 00:27:10;;;;;;;13.43;2.08;;;;;;;;;;5066904;28;20025;-70
2023/01/19 00:29:36;;;;;;;19.17;3.00;;;;;;;;;;5053487;28;20025;-70
2023/01/19 00:32:05;;;;;;;8.40;1.15;;;;;;;;;;5065361;28;20024;-70
2023/01/19 00:34:38;;;;;;;5.55;0.88;;;;;;;;;;5060722;28;20040;-70
2023/01/19 00:37:05;;;;;;;7.80;1.13;;;;;;;;;;5059375;28;20051;-70
2023/01/19 00:39:31;;;;;;;6.07;1.63;;;;;;;;;;5071578;28;20029;-70
2023/01/19 00:44:42;;;;;;;2.90;1.00;;;;;;;;;;5063622;28;20040;-70
2023/01/19 00:47:08;;;;;;;6.45;1.05;;;;;;;;;;5069947;28;20120;-70
2023/01/19 00:49:34;;;;;;;9.27;1.25;;;;;;;;;;5057741;28;20040;-70
2023/01/19 00:52:00;;;;;;;2.15;1.30;;;;;;;;;;5069650;28;20025;-70
2023/01/19 00:54:26;;;;;;;6.00;1.25;;;;;;;;;;5063896;28;20025;-70
2023/01/19 00:56:53;;;;;;;11.52;2.08;;;;;;;;;;5062242;28;20028;-70
2023/01/19 00:59:19;;;;;;;8.95;1.90;;;;;;;;;;5071091;28;20025;-70
2023/01/19 01:01:45;;;;;;;5.75;1.73;;;;;;;;;;5058178;28;20490;-70
2023/01/19 01:04:13;;;;;;;10.68;1.95;;;;;;;;;;5067750;28;20032;-70
2023/01/19 01:06:39;;;;;;;6.85;1.40;;;;;;;;;;5064942;28;20025;-70
2023/01/19 01:09:10;;;;;;;4.47;1.85;;;;;;;;;;5060436;28;20036;-70
2023/01/19 01:11:43;;;;;;;17.33;2.38;;;;;;;;;;5070896;28;20024;-70
2023/01/19 01:14:10;;;;;;;11.00;1.80;;;;;;;;;;5061008;28;20025;-70
2023/01/19 01:16:36;;;;;;;5.57;2.17;;;;;;;;;;5063695;28;20028;-70
2023/01/19 01:19:02;;;;;;;10.77;2.20;;;;;;;;;;5068138;28;20032;-70
2023/01/19 01:21:28;;;;;;;9.02;3.47;;;;;;;;;;5073122;28;20029;-70
2023/01/19 01:23:55;;;;;;;16.77;4.07;;;;;;;;;;5057537;28;20032;-70
2023/01/19 01:26:21;;;;;;;12.75;1.90;;;;;;;;;;5066549;28;20021;-70
2023/01/19 01:28:47;;;;;;;7.20;1.70;;;;;;;;;;5065265;28;20021;-69
2023/01/19 01:31:13;;;;;;;8.43;1.52;;;;;;;;;;5059283;28;20718;-70
2023/01/19 01:33:39;;;;;;;6.28;1.80;;;;;;;;;;5070452;28;20033;-70
2023/01/19 01:36:05;;;;;;;9.65;2.67;;;;;;;;;;5059421;28;20043;-69
2023/01/19 01:38:32;;;;;;;13.80;2.15;;;;;;;;;;5064756;28;20079;-70
2023/01/19 01:40:58;;;;;;;10.18;1.90;;;;;;;;;;5066748;28;20029;-69
2023/01/19 01:43:41;;;;;;;12.57;1.95;;;;;;;;;;5056618;28;20414;-70
2023/01/19 01:46:07;;;;;;;12.38;4.50;;;;;;;;;;5054220;28;20453;-70
2023/01/19 01:48:34;;;;;;;6.63;1.60;;;;;;;;;;5061951;28;20035;-70
2023/01/19 01:53:48;;;;;;;11.98;2.13;;;;;;;;;;5069882;28;20032;-70
2023/01/19 01:56:18;;;;;;;20.67;2.25;;;;;;;;;;5060285;28;20495;-70
2023/01/19 01:58:44;;;;;;;6.45;1.98;;;;;;;;;;5061986;28;20087;-70
2023/01/19 02:03:55;;;;;;;8.95;2.47;;;;;;;;;;5057028;28;20078;-70
2023/01/19 02:06:22;;;;;;;9.82;1.90;;;;;;;;;;5066590;28;20549;-69
2023/01/19 02:14:23;;;;;;;10.80;1.60;;;;;;;;;;5066394;28;20025;-69
2023/01/19 02:16:49;;;;;;;11.48;1.60;;;;;;;;;;5063783;28;20028;-70
2023/01/19 02:19:22;;;;;;;8.43;1.35;;;;;;;;;;5069782;28;20155;-69
2023/01/19 02:21:51;;;;;;;5.10;1.55;;;;;;;;;;5070428;28;20508;-69
2023/01/19 02:24:18;;;;;;;7.15;1.95;;;;;;;;;;5059813;28;20020;-69
2023/01/19 02:26:45;;;;;;;6.90;1.48;;;;;;;;;;5062943;28;20482;-69
2023/01/19 02:29:14;;;;;;;8.30;1.50;;;;;;;;;;5066611;28;20063;-69
2023/01/19 02:31:40;;;;;;;6.40;1.25;;;;;;;;;;5056323;28;20047;-69
2023/01/19 02:34:08;;;;;;;7.25;1.30;;;;;;;;;;5068300;28;20025;-69
2023/01/19 02:36:37;;;;;;;6.93;1.42;;;;;;;;;;5061347;28;20024;-69
2023/01/19 02:39:04;;;;;;;5.57;1.42;;;;;;;;;;5060800;28;20028;-70
2023/01/19 02:41:32;;;;;;;8.38;1.33;;;;;;;;;;5068904;28;20585;-69
2023/01/19 02:43:59;;;;;;;8.75;1.25;;;;;;;;;;5101201;28;20041;-69
2023/01/19 02:46:25;;;;;;;9.00;1.58;;;;;;;;;;5058566;28;20033;-69
2023/01/19 02:48:51;;;;;;;9.70;1.85;;;;;;;;;;5074128;28;20032;-70
2023/01/19 02:51:20;;;;;;;11.13;1.63;;;;;;;;;;5058753;28;20017;-70
2023/01/19 02:53:56;;;;;;;9.32;1.58;;;;;;;;;;5068909;28;20078;-70
2023/01/19 02:56:34;;;;;;;5.78;1.40;;;;;;;;;;5081963;28;20060;-70
2023/01/19 02:59:05;;;;;;;5.80;1.88;;;;;;;;;;5060634;28;20112;-70
2023/01/19 03:01:40;;;;;;;4.50;0.90;;;;;;;;;;5077284;28;20386;-70
2023/01/19 03:04:06;;;;;;;6.68;0.82;;;;;;;;;;5056498;28;20021;-70
2023/01/19 03:07:07;;;;;;;2.55;0.90;;;;;;;;;;5064819;28;20024;-70
2023/01/19 03:09:37;;;;;;;4.25;0.80;;;;;;;;;;5042407;28;20033;-70
2023/01/19 03:12:12;;;;;;;3.70;0.98;;;;;;;;;;5046416;28;20037;-70
2023/01/19 03:14:42;;;;;;;5.03;1.30;;;;;;;;;;5036075;28;20112;-69
2023/01/19 03:17:09;;;;;;;7.45;1.27;;;;;;;;;;5033699;28;20033;-69
2023/01/19 03:19:37;;;;;;;6.03;1.20;;;;;;;;;;5036793;28;20533;-69
2023/01/19 03:22:05;;;;;;;6.70;1.40;;;;;;;;;;5040874;28;20581;-69
2023/01/19 03:24:33;;;;;;;3.67;1.00;;;;;;;;;;5044935;28;20123;-69
2023/01/19 03:27:02;;;;;;;5.07;1.02;;;;;;;;;;5032539;28;20164;-70
2023/01/19 03:29:29;;;;;;;5.97;0.90;;;;;;;;;;5043580;28;20017;-70
2023/01/19 03:31:56;;;;;;;6.30;0.90;;;;;;;;;;5040208;28;20028;-69
2023/01/19 03:34:23;;;;;;;11.40;0.98;;;;;;;;;;5035940;28;20029;-69
2023/01/19 03:36:53;;;;;;;6.40;1.10;;;;;;;;;;5020411;28;20049;-69
2023/01/19 03:39:22;;;;;;;8.38;1.10;;;;;;;;;;5044279;28;20128;-69
2023/01/19 03:41:51;;;;;;;2.65;0.90;;;;;;;;;;5038510;28;20056;-69
2023/01/19 03:44:17;;;;;;;4.00;0.80;;;;;;;;;;5051926;28;20087;-70
2023/01/19 03:46:44;;;;;;;6.65;1.15;;;;;;;;;;5077089;28;20025;-69
2023/01/19 03:49:11;;;;;;;8.65;1.02;;;;;;;;;;5052268;28;20475;-69
2023/01/19 03:51:37;;;;;;;6.22;1.10;;;;;;;;;;5059309;28;20044;-69
2023/01/19 03:54:04;;;;;;;6.38;1.20;;;;;;;;;;5060604;28;20029;-69
2023/01/19 03:56:31;;;;;;;7.60;1.85;;;;;;;;;;5065001;28;20032;-69
2023/01/19 03:58:57;;;;;;;5.55;1.13;;;;;;;;;;5054890;28;20031;-69
2023/01/19 04:01:23;;;;;;;10.38;2.95;;;;;;;;;;5066615;28;20029;-69
2023/01/19 04:03:50;;;;;;;7.93;1.33;;;;;;;;;;5060497;28;20493;-69
2023/01/19 04:06:17;;;;;;;13.82;2.42;;;;;;;;;;5058006;28;20494;-69
2023/01/19 04:08:43;;;;;;;4.22;1.35;;;;;;;;;;5067714;28;20040;-70
2023/01/19 04:11:09;;;;;;;3.70;1.13;;;;;;;;;;5056042;28;20066;-69
2023/01/19 04:13:36;;;;;;;9.13;1.95;;;;;;;;;;5069043;28;20021;-69
2023/01/19 04:16:03;;;;;;;5.57;0.80;;;;;;;;;;5073353;28;20027;-70
2023/01/19 04:18:29;;;;;;;1.00;0.70;;;;;;;;;;5080018;28;20032;-70
2023/01/19 04:20:59;;;;;;;3.60;1.08;;;;;;;;;;5074103;28;20424;-70
2023/01/19 04:23:25;;;;;;;5.82;1.35;;;;;;;;;;5060519;28;20021;-71
2023/01/19 04:25:57;;;;;;;5.45;1.25;;;;;;;;;;5066511;28;20033;-70
2023/01/19 04:28:23;;;;;;;3.78;0.95;;;;;;;;;;5068438;28;20037;-71
2023/01/19 04:30:51;;;;;;;7.70;1.25;;;;;;;;;;5058852;28;20019;-70
2023/01/19 04:33:17;;;;;;;4.45;1.52;;;;;;;;;;5071569;28;20490;-70
2023/01/19 04:35:46;;;;;;;2.70;0.90;;;;;;;;;;5068062;28;20440;-69
2023/01/19 04:38:13;;;;;;;7.10;1.25;;;;;;;;;;5069490;28;20046;-69
2023/01/19 04:40:39;;;;;;;5.90;1.30;;;;;;;;;;5060179;28;20025;-70
2023/01/19 04:43:05;;;;;;;6.68;1.08;;;;;;;;;;5071560;28;20032;-70
2023/01/19 04:45:32;;;;;;;17.02;3.72;;;;;;;;;;5060693;28;20016;-69
2023/01/19 04:47:58;;;;;;;3.50;1.15;;;;;;;;;;5065693;28;20076;-70
2023/01/19 04:50:24;;;;;;;4.35;1.10;;;;;;;;;;5067853;28;20065;-69
2023/01/19 04:52:50;;;;;;;25.65;4.15;;;;;;;;;;5057729;28;20079;-70
2023/01/19 04:55:17;;;;;;;8.30;1.30;;;;;;;;;;5071264;28;20028;-70
2023/01/19 04:57:44;;;;;;;9.43;1.42;;;;;;;;;;5061887;28;20090;-70
2023/01/19 05:00:11;;;;;;;4.88;1.42;;;;;;;;;;5066135;28;20017;-70
2023/01/19 05:02:37;;;;;;;8.30;1.50;;;;;;;;;;5080151;28;20113;-70
2023/01/19 05:05:03;;;;;;;7.82;1.60;;;;;;;;;;5057481;28;20037;-69
2023/01/19 05:07:29;;;;;;;8.52;1.92;;;;;;;;;;5070036;28;20068;-70
2023/01/19 05:09:55;;;;;;;8.05;2.17;;;;;;;;;;5062760;28;20106;-70
2023/01/19 05:12:21;;;;;;;7.70;1.40;;;;;;;;;;5062743;28;20092;-70
2023/01/19 05:14:47;;;;;;;8.45;1.50;;;;;;;;;;5068819;28;20441;-70
2023/01/19 05:17:14;;;;;;;12.60;3.45;;;;;;;;;;5063714;28;20032;-70
2023/01/19 05:19:40;;;;;;;7.00;1.45;;;;;;;;;;5068921;28;20024;-70
2023/01/19 05:22:06;;;;;;;15.20;2.40;;;;;;;;;;5056671;28;20040;-70
2023/01/19 05:24:32;;;;;;;12.57;2.17;;;;;;;;;;5073959;28;20055;-70
2023/01/19 05:26:58;;;;;;;5.20;1.88;;;;;;;;;;5074548;28;20036;-69
2023/01/19 05:29:24;;;;;;;17.95;2.53;;;;;;;;;;5074657;28;20398;-70
2023/01/19 05:31:50;;;;;;;11.57;2.17;;;;;;;;;;5074503;28;20494;-70
2023/01/19 05:34:16;;;;;;;14.95;1.90;;;;;;;;;;5074102;28;20052;-70
2023/01/19 05:36:43;;;;;;;11.90;1.70;;;;;;;;;;5074509;28;20529;-70
2023/01/19 05:39:09;;;;;;;11.30;1.73;;;;;;;;;;5073935;28;20032;-70
2023/01/19 05:41:35;;;;;;;7.57;1.90;;;;;;;;;;5074503;28;20029;-70
2023/01/19 05:44:01;;;;;;;9.40;1.75;;;;;;;;;;5074207;28;20017;-70
2023/01/19 05:46:27;;;;;;;12.35;1.88;;;;;;;;;;5074015;28;20036;-70
2023/01/19 05:48:53;;;;;;;13.00;2.47;;;;;;;;;;5074180;28;20028;-70
2023/01/19 05:51:20;;;;;;;10.25;1.50;;;;;;;;;;5074042;28;20067;-70
2023/01/19 05:53:46;;;;;;;8.73;1.50;;;;;;;;;;5073985;28;20402;-70
2023/01/19 05:56:12;;;;;;;12.48;2.10;;;;;;;;;;5073897;28;20029;-70
2023/01/19 05:58:38;;;;;;;11.70;2.05;;;;;;;;;;5074086;28;20024;-70
2023/01/19 06:01:06;;;;;;;8.70;1.92;;;;;;;;;;5073907;28;20028;-70
2023/01/19 06:03:32;;;;;;;7.72;1.77;;;;;;;;;;5073920;28;20485;-69
2023/01/19 06:05:59;;;;;;;6.15;1.80;;;;;;;;;;5073885;28;20055;-69
2023/01/19 06:08:25;;;;;;;4.47;1.58;;;;;;;;;;5073486;28;20033;-67
2023/01/19 06:10:51;;;;;;;10.45;1.88;;;;;;;;;;5074004;28;20028;-69
2023/01/19 06:13:17;;;;;;;12.63;3.33;;;;;;;;;;5072345;28;20465;-69
2023/01/19 06:15:43;;;;;;;7.75;2.15;;;;;;;;;;5073900;28;20116;-69
2023/01/19 06:18:10;;;;;;;5.30;1.60;;;;;;;;;;5071292;28;20033;-70
2023/01/19 06:20:36;;;;;;;8.50;1.70;;;;;;;;;;5066972;28;20013;-70
2023/01/19 06:23:03;;;;;;;6.70;1.60;;;;;;;;;;5072356;28;20020;-70
2023/01/19 06:25:29;;;;;;;9.30;1.80;;;;;;;;;;5070859;28;20086;-70
2023/01/19 06:27:55;;;;;;;11.00;1.65;;;;;;;;;;5071124;28;20075;-70
2023/01/19 06:30:21;;;;;;;13.93;2.30;;;;;;;;;;5062524;28;20017;-70
2023/01/19 06:32:47;;;;;;;6.15;2.00;;;;;;;;;;5070470;28;20036;-70
2023/01/19 06:35:13;;;;;;;8.45;3.55;;;;;;;;;;5067339;28;20044;-70
2023/01/19 06:37:40;;;;;;;6.72;3.25;;;;;;;;;;5069778;28;20047;-70
2023/01/19 06:40:06;;;;;;;11.88;2.13;;;;;;;;;;5073689;28;20056;-70
2023/01/19 06:42:33;;;;;;;4.72;1.67;;;;;;;;;;5068535;28;20426;-70
2023/01/19 06:44:59;;;;;;;3.97;2.10;;;;;;;;;;5067730;28;20031;-70
2023/01/19 06:47:25;;;;;;;8.00;2.60;;;;;;;;;;5070549;28;20142;-70
2023/01/19 06:49:51;;;;;;;13.07;3.40;;;;;;;;;;5066240;28;20119;-70
2023/01/19 06:52:19;;;;;;;8.80;2.78;;;;;;;;;;5060513;28;20063;-70
2023/01/19 06:54:45;;;;;;;14.82;5.25;;;;;;;;;;5059425;28;20116;-70
2023/01/19 06:57:12;;;;;;;13.65;6.28;;;;;;;;;;5071536;28;20024;-70
2023/01/19 06:59:38;;;;;;;10.60;5.15;;;;;;;;;;5065055;28;20020;-69
2023/01/19 07:02:04;;;;;;;10.00;4.60;;;;;;;;;;5058501;28;20028;-70
2023/01/19 07:04:31;;;;;;;12.90;4.88;;;;;;;;;;5061644;28;20029;-70
2023/01/19 07:06:57;;;;;;;12.23;2.95;;;;;;;;;;5066498;28;20389;-70
2023/01/19 07:09:24;;;;;;;11.75;3.92;;;;;;;;;;5063324;28;20032;-70
2023/01/19 07:11:50;;;;;;;13.43;4.78;;;;;;;;;;5066798;28;20079;-70
2023/01/19 07:14:16;;;;;;;7.38;3.55;;;;;;;;;;5068635;28;20478;-70
2023/01/19 07:16:42;;;;;;;8.68;4.07;;;;;;;;;;5066615;28;20374;-70
2023/01/19 07:19:09;;;;;;;16.80;10.15;;;;;;;;;;5067661;28;20028;-70
2023/01/19 07:21:36;;;;;;;18.10;7.57;;;;;;;;;;5070743;28;20029;-70
2023/01/19 07:24:02;;;;;;;15.88;8.35;;;;;;;;;;5058744;28;20070;-70
2023/01/19 07:26:29;;;;;;;10.18;4.55;;;;;;;;;;5061159;28;20021;-70
2023/01/19 07:28:55;;;;;;;9.68;3.88;;;;;;;;;;5066185;28;20040;-70
2023/01/19 07:31:21;;;;;;;12.75;3.15;;;;;;;;;;5054576;28;20514;-70
2023/01/19 07:33:48;;;;;;;8.13;3.17;;;;;;;;;;5070975;28;20491;-70
2023/01/19 07:36:14;;;;;;;15.32;4.45;;;;;;;;;;5068859;28;20040;-70
2023/01/19 07:38:40;;;;;;;8.07;3.25;;;;;;;;;;5069938;28;20498;-70
2023/01/19 07:41:07;;;;;;;12.73;3.75;;;;;;;;;;5069289;28;20023;-70
2023/01/19 07:43:34;;;;;;;7.85;3.00;;;;;;;;;;5069790;28;20067;-71
2023/01/19 07:46:02;;;;;;;9.93;3.78;;;;;;;;;;5068047;28;20053;-71
2023/01/19 07:48:29;;;;;;;10.50;3.30;;;;;;;;;;5069793;28;20021;-70
2023/01/19 07:51:04;;;;;;;13.32;3.10;;;;;;;;;;5070059;28;20093;-70
2023/01/19 07:53:30;;;;;;;9.95;4.18;;;;;;;;;;5068046;28;20555;-70
2023/01/19 07:55:56;;;;;;;13.77;3.03;;;;;;;;;;5069770;28;20397;-70
2023/01/19 07:58:23;;;;;;;14.40;3.78;;;;;;;;;;5070231;28;20028;-70
2023/01/19 08:00:49;;;;;;;40.20;15.52;;;;;;;;;;5068973;28;20028;-70
2023/01/19 08:03:16;;;;;;;42.63;20.52;;;;;;;;;;5062589;28;20389;-70
2023/01/19 08:05:43;;;;;;;36.63;20.65;;;;;;;;;;5072859;28;20024;-70
2023/01/19 08:08:10;;;;;;;36.40;16.88;;;;;;;;;;5073265;28;20036;-71
2023/01/19 08:10:36;;;;;;;38.33;15.13;;;;;;;;;;5068969;28;20111;-70
2023/01/19 08:13:02;;;;;;;32.20;14.23;;;;;;;;;;5061227;28;20016;-70
2023/01/19 08:15:28;;;;;;;39.10;13.82;;;;;;;;;;5055776;28;20071;-70
2023/01/19 08:17:55;;;;;;;24.17;10.48;;;;;;;;;;5069841;28;20037;-71
2023/01/19 08:20:22;;;;;;;22.48;7.65;;;;;;;;;;5066225;28;20433;-70
2023/01/19 08:22:48;;;;;;;14.68;4.15;;;;;;;;;;5069545;28;20033;-70
2023/01/19 08:25:15;;;;;;;17.30;3.20;;;;;;;;;;5069887;28;20024;-70
2023/01/19 08:27:41;;;;;;;8.10;2.30;;;;;;;;;;5069330;28;20028;-70
2023/01/19 08:30:07;;;;;;;8.18;2.63;;;;;;;;;;5067655;28;20470;-70
2023/01/19 08:32:33;;;;;;;14.10;4.43;;;;;;;;;;5066696;28;20116;-71
2023/01/19 08:34:59;;;;;;;11.13;3.20;;;;;;;;;;5065797;28;20039;-70
2023/01/19 08:37:26;;;;;;;7.93;3.50;;;;;;;;;;5067429;28;20032;-70
2023/01/19 08:39:52;;;;;;;13.70;3.70;;;;;;;;;;5069087;28;20029;-70
2023/01/19 08:42:19;;;;;;;9.88;3.30;;;;;;;;;;5069218;28;20024;-71
2023/01/19 08:44:45;;;;;;;13.02;4.18;;;;;;;;;;5067660;28;20039;-70
2023/01/19 08:47:11;;;;;;;16.92;5.32;;;;;;;;;;5068770;28;20024;-70
2023/01/19 08:49:38;;;;;;;19.35;7.13;;;;;;;;;;5069250;28;20078;-71
2023/01/19 08:52:04;;;;;;;26.75;7.88;;;;;;;;;;5066305;28;20091;-70
2023/01/19 08:54:30;;;;;;;28.50;8.07;;;;;;;;;;5065613;28;20478;-70
2023/01/19 08:56:56;;;;;;;21.33;7.97;;;;;;;;;;5068353;28;20025;-70
2023/01/19 08:59:22;;;;;;;24.60;7.75;;;;;;;;;;5069735;28;20070;-70
2023/01/19 09:01:48;;;;;;;19.35;6.85;;;;;;;;;;5067210;28;20036;-70
2023/01/19 09:04:14;;;;;;;16.13;5.78;;;;;;;;;;5068836;28;20550;-71
2023/01/19 09:06:40;;;;;;;18.10;5.50;;;;;;;;;;5069790;28;20115;-70
2023/01/19 09:09:06;;;;;;;19.65;5.80;;;;;;;;;;5066383;28;20025;-70
2023/01/19 09:11:33;;;;;;;17.55;6.53;;;;;;;;;;5070885;28;20035;-70
2023/01/19 09:13:59;;;;;;;19.35;10.45;;;;;;;;;;5074714;28;20428;-71
2023/01/19 09:16:27;;;;;;;19.67;9.30;;;;;;;;;;5072807;28;20020;-70
2023/01/19 09:18:53;;;;;;;26.25;11.32;;;;;;;;;;5074021;28;20028;-71
2023/01/19 09:21:19;;;;;;;41.55;15.25;;;;;;;;;;5070484;28;20070;-70
2023/01/19 09:23:45;;;;;;;28.35;9.50;;;;;;;;;;5072099;28;20028;-70
2023/01/19 09:26:11;;;;;;;22.30;7.25;;;;;;;;;;5068483;28;20024;-70
2023/01/19 09:28:38;;;;;;;14.90;4.05;;;;;;;;;;5070391;28;20028;-70
2023/01/19 09:31:06;;;;;;;16.75;4.80;;;;;;;;;;5069986;28;20386;-70
2023/01/19 09:33:32;;;;;;;18.15;6.25;;;;;;;;;;5072731;28;20024;-71
2023/01/19 09:35:58;;;;;;;15.85;7.05;;;;;;;;;;5071751;28;20053;-71
2023/01/19 09:38:25;;;;;;;13.90;7.53;;;;;;;;;;5070323;28;20033;-70
2023/01/19 09:40:53;;;;;;;18.08;8.45;;;;;;;;;;5070862;28;20473;-71
2023/01/19 09:43:33;;;;;;;18.08;8.85;;;;;;;;;;5068877;28;20031;-70
2023/01/19 09:46:00;;;;;;;16.25;7.75;;;;;;;;;;5068466;28;20032;-71
2023/01/19 09:48:26;;;;;;;23.55;11.63;;;;;;;;;;5069015;28;20511;-70
2023/01/19 09:50:53;;;;;;;16.08;6.40;;;;;;;;;;5071730;28;20028;-71
2023/01/19 09:53:33;;;;;;;17.08;7.57;;;;;;;;;;5070369;28;20122;-71
2023/01/19 09:55:59;;;;;;;29.77;9.95;;;;;;;;;;5069026;28;20075;-71
2023/01/19 09:58:25;;;;;;;11.65;4.03;;;;;;;;;;5064025;28;20023;-71
2023/01/19 10:00:55;;;;;;;10.73;2.65;;;;;;;;;;5071575;28;20025;-71
2023/01/19 10:03:22;;;;;;;9.93;3.47;;;;;;;;;;5069620;28;20032;-71
2023/01/19 10:06:05;;;;;;;11.65;2.80;;;;;;;;;;5068472;28;20040;-70
2023/01/19 10:08:37;;;;;;;12.00;3.28;;;;;;;;;;5067298;28;20029;-70
2023/01/19 10:11:05;;;;;;;10.53;3.60;;;;;;;;;;5071359;28;20024;-71
2023/01/19 10:13:47;;;;;;;17.77;3.08;;;;;;;;;;5069376;28;20020;-71
2023/01/19 10:16:34;;;;;;;13.90;2.45;;;;;;;;;;5067618;28;20028;-70
2023/01/19 10:19:11;;;;;;;13.75;3.03;;;;;;;;;;5070029;28;20159;-71
2023/01/19 10:21:42;;;;;;;10.32;2.38;;;;;;;;;;5071772;28;20028;-70
2023/01/19 10:24:18;;;;;;;17.05;3.33;;;;;;;;;;5068427;28;20067;-71
2023/01/19 10:26:51;;;;;;;6.57;2.63;;;;;;;;;;5069085;28;20030;-71
2023/01/19 10:29:21;;;;;;;11.35;3.03;;;;;;;;;;5066415;28;20024;-71
2023/01/19 10:31:49;;;;;;;10.50;3.10;;;;;;;;;;5068740;28;20032;-70
2023/01/19 10:34:17;;;;;;;6.15;3.03;;;;;;;;;;5064445;28;20067;-72
2023/01/19 10:36:44;;;;;;;15.88;6.22;;;;;;;;;;5066813;28;20036;-71
2023/01/19 10:39:13;;;;;;;14.15;5.47;;;;;;;;;;5065482;28;20565;-71
2023/01/19 10:41:39;;;;;;;15.77;5.30;;;;;;;;;;5067384;28;20389;-71
2023/01/19 10:44:08;;;;;;;12.70;4.93;;;;;;;;;;5065398;28;20050;-71
2023/01/19 10:46:37;;;;;;;17.08;5.97;;;;;;;;;;5066753;28;20090;-71
2023/01/19 10:49:04;;;;;;;14.07;4.50;;;;;;;;;;5066940;28;20379;-71
2023/01/19 10:51:30;;;;;;;12.68;3.53;;;;;;;;;;5064897;28;20035;-71
2023/01/19 10:54:01;;;;;;;15.73;3.95;;;;;;;;;;5065715;28;20024;-71
2023/01/19 10:56:30;;;;;;;16.38;4.50;;;;;;;;;;5069613;28;20047;-71
2023/01/19 10:58:57;;;;;;;8.90;3.17;;;;;;;;;;5071973;28;20131;-71
2023/01/19 11:01:25;;;;;;;11.95;3.15;;;;;;;;;;5070439;28;20120;-71
2023/01/19 11:03:52;;;;;;;15.10;4.53;;;;;;;;;;5071212;28;20029;-71
2023/01/19 11:06:23;;;;;;;12.80;3.50;;;;;;;;;;5069042;28;20481;-70
2023/01/19 11:08:50;;;;;;;7.03;3.17;;;;;;;;;;5068127;28;20379;-71
2023/01/19 11:11:17;;;;;;;8.63;4.50;;;;;;;;;;5070017;28;20103;-70
2023/01/19 11:13:44;;;;;;;14.45;4.75;;;;;;;;;;5068345;28;20020;-71
2023/01/19 11:16:22;;;;;;;10.70;2.85;;;;;;;;;;5068065;28;20063;-71
2023/01/19 11:18:51;;;;;;;9.43;2.78;;;;;;;;;;5069116;28;20521;-71
2023/01/19 11:21:17;;;;;;;8.23;3.55;;;;;;;;;;5069522;28;20024;-71
2023/01/19 11:23:49;;;;;;;6.30;2.53;;;;;;;;;;5069606;28;20028;-70
2023/01/19 11:26:28;;;;;;;9.55;3.65;;;;;;;;;;5065212;28;20028;-71
2023/01/19 11:28:55;;;;;;;18.17;3.67;;;;;;;;;;5061117;28;20112;-71
2023/01/19 11:31:27;;;;;;;17.40;5.43;;;;;;;;;;5067235;28;20017;-71
2023/01/19 11:33:55;;;;;;;10.53;5.97;;;;;;;;;;5069478;28;20032;-71
2023/01/19 11:36:21;;;;;;;6.65;2.65;;;;;;;;;;5069135;28;20045;-71
2023/01/19 11:38:52;;;;;;;15.10;4.55;;;;;;;;;;5061658;28;20052;-71
2023/01/19 11:41:22;;;;;;;10.73;2.65;;;;;;;;;;5061987;28;20033;-71
2023/01/19 11:43:51;;;;;;;14.80;4.97;;;;;;;;;;5069354;28;20031;-71
2023/01/19 11:46:17;;;;;;;8.05;2.67;;;;;;;;;;5060637;28;20490;-71
2023/01/19 11:48:59;;;;;;;14.88;2.90;;;;;;;;;;5057064;28;20033;-71
2023/01/19 11:51:27;;;;;;;14.75;3.35;;;;;;;;;;5058665;28;20028;-71
2023/01/19 11:53:53;;;;;;;17.38;3.92;;;;;;;;;;5069205;28;20093;-71
2023/01/19 11:56:22;;;;;;;11.68;3.08;;;;;;;;;;5070689;28;20021;-70
2023/01/19 11:58:48;;;;;;;10.23;3.65;;;;;;;;;;5063298;28;20060;-70
2023/01/19 12:01:24;;;;;;;6.28;1.80;;;;;;;;;;5069773;28;20489;-70
2023/01/19 12:03:56;;;;;;;8.63;2.03;;;;;;;;;;5061255;28;20028;-71
2023/01/19 12:06:25;;;;;;;7.82;2.30;;;;;;;;;;5068149;28;20062;-71
2023/01/19 12:08:53;;;;;;;9.13;2.15;;;;;;;;;;5060726;28;20375;-71
2023/01/19 12:11:22;;;;;;;30.10;5.53;;;;;;;;;;5062432;28;20518;-71
2023/01/19 12:13:49;;;;;;;10.85;3.33;;;;;;;;;;5061175;28;20029;-70
2023/01/19 12:16:22;;;;;;;8.88;2.20;;;;;;;;;;5065236;28;20067;-71
2023/01/19 12:18:51;;;;;;;8.60;2.58;;;;;;;;;;5069247;28;20119;-71
2023/01/19 12:21:19;;;;;;;7.88;1.73;;;;;;;;;;5069400;28;20397;-70
2023/01/19 12:23:54;;;;;;;16.05;2.17;;;;;;;;;;5067320;28;20119;-70
2023/01/19 12:26:29;;;;;;;10.18;1.90;;;;;;;;;;5069634;28;20090;-70
2023/01/19 12:29:16;;;;;;;9.73;1.92;;;;;;;;;;5068358;28;20494;-70
2023/01/19 12:31:43;;;;;;;12.82;2.40;;;;;;;;;;5071078;28;20029;-70
2023/01/19 12:34:34;;;;;;;10.02;2.25;;;;;;;;;;5077836;28;20020;-70
2023/01/19 12:37:05;;;;;;;7.22;2.53;;;;;;;;;;5066889;28;20510;-71
2023/01/19 12:39:32;;;;;;;9.38;2.05;;;;;;;;;;5073607;28;20017;-71
2023/01/19 12:42:07;;;;;;;15.88;5.40;;;;;;;;;;5079620;28;20025;-70
2023/01/19 12:44:33;;;;;;;10.40;2.50;;;;;;;;;;5063639;28;20037;-70
2023/01/19 12:47:21;;;;;;;7.60;1.55;;;;;;;;;;5072170;28;20027;-70
2023/01/19 12:49:52;;;;;;;8.98;2.72;;;;;;;;;;5074521;28;20029;-70
2023/01/19 12:52:27;;;;;;;7.15;2.13;;;;;;;;;;5072279;28;20021;-70
2023/01/19 12:55:05;;;;;;;7.57;2.33;;;;;;;;;;5069020;28;20115;-70
2023/01/19 12:57:31;;;;;;;8.68;2.17;;;;;;;;;;5072421;28;20024;-70
2023/01/19 12:59:59;;;;;;;10.48;2.17;;;;;;;;;;5059412;28;20029;-70
2023/01/19 13:02:28;;;;;;;8.80;2.08;;;;;;;;;;5073683;28;20067;-70
2023/01/19 13:05:06;;;;;;;6.93;1.88;;;;;;;;;;5073078;28;20028;-70
2023/01/19 13:07:51;;;;;;;4.43;1.77;;;;;;;;;;5061946;28;20021;-69
2023/01/19 13:10:36;;;;;;;4.07;1.50;;;;;;;;;;5065677;28;20021;-70
2023/01/19 13:13:28;;;;;;;6.30;2.00;;;;;;;;;;5071548;28;20028;-70
2023/01/19 13:15:55;;;;;;;13.60;3.33;;;;;;;;;;5055564;28;20033;-70
2023/01/19 13:18:25;;;;;;;6.35;2.97;;;;;;;;;;5063450;28;20024;-70
2023/01/19 13:21:01;;;;;;;7.30;2.72;;;;;;;;;;5071003;28;20056;-71
2023/01/19 13:23:29;;;;;;;10.48;2.83;;;;;;;;;;5071972;28;20024;-70
2023/01/19 13:26:00;;;;;;;11.07;1.63;;;;;;;;;;5069466;28;20016;-70
2023/01/19 13:28:38;;;;;;;12.75;1.83;;;;;;;;;;5064354;28;20028;-70
2023/01/19 13:31:05;;;;;;;4.55;1.27;;;;;;;;;;5069283;28;20079;-70
2023/01/19 13:33:47;;;;;;;4.80;1.30;;;;;;;;;;5064387;28;20089;-70
2023/01/19 13:36:22;;;;;;;6.50;1.40;;;;;;;;;;5065765;28;20041;-70
2023/01/19 13:38:50;;;;;;;6.68;1.10;;;;;;;;;;5064848;28;20029;-70
2023/01/19 13:41:17;;;;;;;3.97;1.20;;;;;;;;;;5066761;28;20439;-70
2023/01/19 13:43:43;;;;;;;3.72;1.02;;;;;;;;;;5066673;28;20108;-70
2023/01/19 13:46:13;;;;;;;8.52;1.65;;;;;;;;;;5071511;28;20024;-70
2023/01/19 13:48:39;;;;;;;8.20;2.00;;;;;;;;;;5072194;28;20495;-70
2023/01/19 13:51:07;;;;;;;4.28;1.17;;;;;;;;;;5066840;28;20036;-70
2023/01/19 13:53:35;;;;;;;3.95;1.48;;;;;;;;;;5069666;28;20032;-70
2023/01/19 13:56:07;;;;;;;2.63;1.10;;;;;;;;;;5070840;28;20104;-71
2023/01/19 13:58:33;;;;;;;6.95;1.50;;;;;;;;;;5071773;28;20028;-70
2023/01/19 14:00:59;;;;;;;5.32;1.10;;;;;;;;;;5071204;28;20032;-70
2023/01/19 14:03:25;;;;;;;4.53;1.15;;;;;;;;;;5071774;28;20081;-70
2023/01/19 14:05:53;;;;;;;10.77;1.48;;;;;;;;;;5070017;28;20379;-70
2023/01/19 14:08:19;;;;;;;5.80;1.20;;;;;;;;;;5071800;28;20039;-70
2023/01/19 14:11:01;;;;;;;5.13;1.17;;;;;;;;;;5071286;28;20048;-70
2023/01/19 14:13:28;;;;;;;8.63;1.60;;;;;;;;;;5071576;28;20027;-70
2023/01/19 14:16:04;;;;;;;3.42;1.10;;;;;;;;;;5068759;28;20095;-70
2023/01/19 14:18:31;;;;;;;6.55;1.20;;;;;;;;;;5071616;28;20179;-70
2023/01/19 14:21:00;;;;;;;7.60;2.17;;;;;;;;;;5070980;28;20367;-70
2023/01/19 14:23:37;;;;;;;4.93;1.13;;;;;;;;;;5071303;28;20399;-70
2023/01/19 14:26:03;;;;;;;6.97;1.10;;;;;;;;;;5070094;28;20120;-70
2023/01/19 14:28:29;;;;;;;6.05;1.52;;;;;;;;;;5071487;28;20057;-70
2023/01/19 14:30:56;;;;;;;5.20;1.67;;;;;;;;;;5071389;28;20021;-70
2023/01/19 14:33:36;;;;;;;2.22;0.93;;;;;;;;;;5071668;28;20074;-70
2023/01/19 14:36:20;;;;;;;3.80;0.90;;;;;;;;;;5070349;28;20033;-70
2023/01/19 14:38:48;;;;;;;4.80;1.30;;;;;;;;;;5070593;28;20024;-70
2023/01/19 14:41:33;;;;;;;4.18;1.65;;;;;;;;;;5071245;28;20027;-70
2023/01/19 14:44:00;;;;;;;5.07;2.10;;;;;;;;;;5071226;28;20033;-70
2023/01/19 14:46:26;;;;;;;6.75;1.60;;;;;;;;;;5071591;28;20077;-70
2023/01/19 14:48:55;;;;;;;7.45;1.60;;;;;;;;;;5071075;28;20508;-70
2023/01/19 14:51:22;;;;;;;5.97;1.25;;;;;;;;;;5070025;28;20380;-70
2023/01/19 14:53:55;;;;;;;4.25;1.35;;;;;;;;;;5071285;28;20470;-70
2023/01/19 14:56:26;;;;;;;3.75;1.10;;;;;;;;;;5061841;28;20021;-70